createdAt,value
2022-12-27T00:00:31.410Z,3.07
2022-12-27T00:01:31.567Z,3.10
2022-12-27T00:02:31.401Z,3.15
2022-12-27T00:03:31.335Z,3.10
2022-12-27T00:04:31.368Z,3.07
2022-12-27T00:05:31.311Z,3.04
2022-12-27T00:06:31.318Z,3.20
2022-12-27T00:07:31.293Z,3.13
2022-12-27T00:08:31.287Z,3.15
2022-12-27T00:09:31.264Z,3.07
2022-12-27T00:10:31.259Z,3.12
2022-12-27T00:11:31.269Z,3.10
2022-12-27T00:12:31.248Z,3.12
2022-12-27T00:13:31.244Z,3.04
2022-12-27T00:14:31.336Z,3.08
2022-12-27T00:15:31.209Z,3.15
2022-12-27T00:16:31.238Z,3.07
2022-12-27T00:17:31.283Z,2.92
2022-12-27T00:18:31.176Z,2.97
2022-12-27T00:19:31.146Z,2.94
2022-12-27T00:20:31.142Z,2.92
2022-12-27T00:21:31.194Z,3.04
2022-12-27T00:22:31.149Z,2.97
2022-12-27T00:23:31.147Z,2.87
2022-12-27T00:24:32.108Z,2.86
2022-12-27T00:25:31.083Z,2.89
2022-12-27T00:26:31.088Z,2.84
2022-12-27T00:27:31.095Z,2.84
2022-12-27T00:28:31.167Z,2.89
2022-12-27T00:29:32.039Z,2.80
2022-12-27T00:30:31.037Z,2.83
2022-12-27T00:31:31.092Z,2.80
2022-12-27T00:32:31.002Z,2.80
2022-12-27T00:33:31.025Z,2.81
2022-12-27T00:34:30.988Z,2.77
2022-12-27T00:35:31.090Z,2.71
2022-12-27T00:36:30.967Z,2.73
2022-12-27T00:37:30.982Z,2.74
2022-12-27T00:38:30.945Z,2.80
2022-12-27T00:39:30.940Z,2.71
2022-12-27T00:40:30.964Z,2.81
2022-12-27T00:41:30.918Z,2.73
2022-12-27T00:42:30.939Z,2.79
2022-12-27T00:43:30.896Z,2.66
2022-12-27T00:44:30.885Z,2.76
2022-12-27T00:45:30.950Z,2.69
2022-12-27T00:46:31.321Z,2.73
2022-12-27T00:47:30.866Z,2.76
2022-12-27T00:48:30.874Z,2.86
2022-12-27T00:49:30.833Z,2.73
2022-12-27T00:50:30.846Z,2.81
2022-12-27T00:51:30.835Z,2.73
2022-12-27T00:52:30.856Z,2.77
2022-12-27T00:53:30.776Z,2.71
2022-12-27T00:54:30.771Z,2.80
2022-12-27T00:55:30.791Z,2.79
2022-12-27T00:56:30.773Z,2.77
2022-12-27T00:57:30.727Z,2.84
2022-12-27T00:58:30.744Z,2.66
2022-12-27T00:59:30.767Z,2.77
2022-12-27T01:00:30.714Z,2.84
2022-12-27T01:01:30.892Z,2.87
2022-12-27T01:02:30.691Z,2.86
2022-12-27T01:03:30.759Z,2.86
2022-12-27T01:04:31.273Z,2.86
2022-12-27T01:05:30.684Z,2.86
2022-12-27T01:06:30.680Z,2.81
2022-12-27T01:07:30.640Z,2.79
2022-12-27T01:08:30.624Z,2.84
2022-12-27T01:09:30.615Z,2.92
2022-12-27T01:10:30.649Z,2.79
2022-12-27T01:11:30.623Z,2.81
2022-12-27T01:12:30.597Z,2.80
2022-12-27T01:13:30.576Z,2.80
2022-12-27T01:14:30.585Z,2.86
2022-12-27T01:15:30.566Z,2.68
2022-12-27T01:16:30.859Z,2.77
2022-12-27T01:17:30.549Z,2.74
2022-12-27T01:18:30.541Z,2.77
2022-12-27T01:19:30.512Z,2.73
2022-12-27T01:20:30.528Z,2.81
2022-12-27T01:21:30.538Z,2.71
2022-12-27T01:22:30.473Z,2.74
2022-12-27T01:23:30.457Z,2.81
2022-12-27T01:24:30.470Z,2.87
2022-12-27T01:25:30.458Z,2.86
2022-12-27T01:26:30.440Z,2.80
2022-12-27T01:27:30.448Z,2.76
2022-12-27T01:28:30.401Z,2.81
2022-12-27T01:29:30.718Z,2.74
2022-12-27T01:30:30.387Z,2.73
2022-12-27T01:31:30.464Z,2.71
2022-12-27T01:32:30.394Z,2.63
2022-12-27T01:33:30.359Z,2.66
2022-12-27T01:34:30.345Z,2.74
2022-12-27T01:35:30.348Z,2.76
2022-12-27T01:36:30.357Z,2.66
2022-12-27T01:37:30.341Z,2.77
2022-12-27T01:38:30.384Z,2.81
2022-12-27T01:39:30.291Z,2.76
2022-12-27T01:40:30.275Z,2.81
2022-12-27T01:41:31.295Z,2.77
2022-12-27T01:42:30.255Z,2.80
2022-12-27T01:43:30.254Z,2.83
2022-12-27T01:44:30.255Z,2.83
2022-12-27T01:45:30.273Z,2.79
2022-12-27T01:46:30.286Z,2.76
2022-12-27T01:47:31.230Z,2.69
2022-12-27T01:48:30.267Z,2.79
2022-12-27T01:49:30.212Z,2.74
2022-12-27T01:50:30.205Z,2.76
2022-12-27T01:51:30.164Z,2.74
2022-12-27T01:52:34.805Z,2.77
2022-12-27T01:53:30.147Z,2.66
2022-12-27T01:54:30.123Z,2.71
2022-12-27T01:55:30.123Z,2.79
2022-12-27T01:56:30.119Z,2.77
2022-12-27T01:57:30.125Z,2.81
2022-12-27T01:58:30.091Z,2.74
2022-12-27T01:59:30.098Z,2.76
2022-12-27T02:00:30.058Z,2.76
2022-12-27T02:01:30.128Z,2.80
2022-12-27T02:02:30.177Z,2.77
2022-12-27T02:03:30.027Z,2.77
2022-12-27T02:04:30.083Z,2.81
2022-12-27T02:05:30.012Z,2.81
2022-12-27T02:06:30.031Z,2.81
2022-12-27T02:07:30.004Z,2.81
2022-12-27T02:08:29.992Z,2.87
2022-12-27T02:09:29.991Z,2.87
2022-12-27T02:10:29.973Z,2.84
2022-12-27T02:11:29.991Z,2.84
2022-12-27T02:12:30.943Z,2.83
2022-12-27T02:13:29.931Z,2.77
2022-12-27T02:14:29.905Z,2.77
2022-12-27T02:15:29.902Z,2.77
2022-12-27T02:16:29.930Z,2.79
2022-12-27T02:17:29.875Z,2.71
2022-12-27T02:18:30.022Z,2.69
2022-12-27T02:19:30.783Z,2.71
2022-12-27T02:20:29.981Z,2.69
2022-12-27T02:21:29.847Z,2.73
2022-12-27T02:22:29.826Z,2.81
2022-12-27T02:23:33.468Z,2.74
2022-12-27T02:24:30.880Z,2.71
2022-12-27T02:25:29.807Z,2.69
2022-12-27T02:26:29.825Z,2.81
2022-12-27T02:27:29.769Z,2.77
2022-12-27T02:28:29.762Z,2.79
2022-12-27T02:29:29.844Z,2.69
2022-12-27T02:30:29.777Z,2.71
2022-12-27T02:31:29.733Z,2.74
2022-12-27T02:32:29.708Z,2.65
2022-12-27T02:33:29.710Z,2.66
2022-12-27T02:34:29.680Z,2.68
2022-12-27T02:35:29.683Z,2.55
2022-12-27T02:36:29.797Z,2.65
2022-12-27T02:37:29.714Z,2.55
2022-12-27T02:38:29.702Z,2.55
2022-12-27T02:39:29.623Z,2.51
2022-12-27T02:40:29.686Z,2.59
2022-12-27T02:41:29.620Z,2.55
2022-12-27T02:42:29.600Z,2.44
2022-12-27T02:43:29.591Z,2.47
2022-12-27T02:44:29.628Z,2.44
2022-12-27T02:45:29.581Z,2.37
2022-12-27T02:46:29.630Z,2.38
2022-12-27T02:47:29.543Z,2.36
2022-12-27T02:48:29.539Z,2.45
2022-12-27T02:49:29.509Z,2.37
2022-12-27T02:50:30.530Z,2.44
2022-12-27T02:51:29.510Z,2.36
2022-12-27T02:52:29.490Z,2.27
2022-12-27T02:53:29.473Z,2.33
2022-12-27T02:54:29.468Z,2.32
2022-12-27T02:55:29.481Z,2.37
2022-12-27T02:56:29.474Z,2.25
2022-12-27T02:57:29.443Z,2.25
2022-12-27T02:58:29.465Z,2.25
2022-12-27T02:59:29.416Z,2.18
2022-12-27T03:00:29.433Z,2.20
2022-12-27T03:01:29.576Z,2.25
2022-12-27T03:02:29.555Z,2.19
2022-12-27T03:03:29.412Z,2.18
2022-12-27T03:04:29.366Z,2.19
2022-12-27T03:05:29.539Z,2.14
2022-12-27T03:06:29.362Z,2.20
2022-12-27T03:07:29.348Z,2.18
2022-12-27T03:08:29.323Z,2.14
2022-12-27T03:09:29.306Z,2.23
2022-12-27T03:10:29.341Z,2.18
2022-12-27T03:11:29.304Z,2.20
2022-12-27T03:12:29.305Z,2.20
2022-12-27T03:13:29.281Z,2.23
2022-12-27T03:14:29.278Z,2.20
2022-12-27T03:15:33.372Z,2.12
2022-12-27T03:16:30.272Z,2.23
2022-12-27T03:17:29.246Z,2.22
2022-12-27T03:18:29.244Z,2.15
2022-12-27T03:19:29.217Z,2.14
2022-12-27T03:20:30.250Z,2.20
2022-12-27T03:21:29.209Z,2.18
2022-12-27T03:22:29.177Z,2.19
2022-12-27T03:23:30.263Z,2.19
2022-12-27T03:24:29.158Z,2.30
2022-12-27T03:25:29.156Z,2.15
2022-12-27T03:26:29.148Z,2.19
2022-12-27T03:27:29.173Z,2.23
2022-12-27T03:28:29.158Z,2.23
2022-12-27T03:29:29.111Z,2.25
2022-12-27T03:30:29.086Z,2.23
2022-12-27T03:31:30.119Z,2.20
2022-12-27T03:32:30.170Z,2.22
2022-12-27T03:33:29.056Z,2.18
2022-12-27T03:34:29.061Z,2.18
2022-12-27T03:35:29.029Z,2.20
2022-12-27T03:36:29.040Z,2.26
2022-12-27T03:37:29.050Z,2.33
2022-12-27T03:38:29.093Z,2.25
2022-12-27T03:39:29.004Z,2.26
2022-12-27T03:40:29.001Z,2.36
2022-12-27T03:41:28.974Z,2.33
2022-12-27T03:42:28.974Z,2.20
2022-12-27T03:43:28.951Z,2.25
2022-12-27T03:44:28.995Z,2.25
2022-12-27T03:45:28.916Z,2.27
2022-12-27T03:46:28.990Z,2.26
2022-12-27T03:47:28.912Z,2.19
2022-12-27T03:48:28.962Z,2.29
2022-12-27T03:49:28.910Z,2.25
2022-12-27T03:50:28.904Z,2.33
2022-12-27T03:51:28.901Z,2.23
2022-12-27T03:52:28.888Z,2.22
2022-12-27T03:53:28.861Z,2.22
2022-12-27T03:54:28.840Z,2.23
2022-12-27T03:55:33.274Z,2.19
2022-12-27T03:56:29.803Z,2.18
2022-12-27T03:57:28.784Z,2.30
2022-12-27T03:58:28.821Z,2.27
2022-12-27T03:59:28.809Z,2.23
2022-12-27T04:00:28.862Z,2.32
2022-12-27T04:01:28.797Z,2.20
2022-12-27T04:02:28.794Z,2.22
2022-12-27T04:03:28.740Z,2.12
2022-12-27T04:04:28.712Z,2.20
2022-12-27T04:05:28.727Z,2.15
2022-12-27T04:06:28.710Z,2.23
2022-12-27T04:07:28.677Z,2.15
2022-12-27T04:08:28.680Z,2.20
2022-12-27T04:09:28.638Z,2.19
2022-12-27T04:10:28.642Z,2.30
2022-12-27T04:11:28.659Z,2.29
2022-12-27T04:12:28.635Z,2.30
2022-12-27T04:13:28.618Z,2.36
2022-12-27T04:14:28.606Z,2.30
2022-12-27T04:15:28.595Z,2.27
2022-12-27T04:16:28.579Z,2.26
2022-12-27T04:17:28.549Z,2.43
2022-12-27T04:18:28.821Z,2.30
2022-12-27T04:19:28.550Z,2.36
2022-12-27T04:20:28.519Z,2.33
2022-12-27T04:21:28.538Z,2.23
2022-12-27T04:22:28.532Z,2.32
2022-12-27T04:23:28.500Z,2.32
2022-12-27T04:24:28.538Z,2.26
2022-12-27T04:25:28.521Z,2.33
2022-12-27T04:26:28.482Z,2.22
2022-12-27T04:27:29.450Z,2.33
2022-12-27T04:28:28.463Z,2.38
2022-12-27T04:29:28.443Z,2.27
2022-12-27T04:30:28.413Z,2.22
2022-12-27T04:31:28.456Z,2.43
2022-12-27T04:32:28.387Z,2.22
2022-12-27T04:33:29.404Z,2.23
2022-12-27T04:34:28.362Z,2.41
2022-12-27T04:35:28.374Z,2.23
2022-12-27T04:36:28.360Z,2.33
2022-12-27T04:37:28.330Z,2.33
2022-12-27T04:38:28.349Z,2.37
2022-12-27T04:39:28.314Z,2.26
2022-12-27T04:40:28.316Z,2.20
2022-12-27T04:41:28.298Z,2.30
2022-12-27T04:42:28.281Z,2.20
2022-12-27T04:44:00.696Z,2.32
2022-12-27T04:44:28.288Z,2.29
2022-12-27T04:45:28.252Z,2.23
2022-12-27T04:46:29.267Z,2.23
2022-12-27T04:47:28.232Z,2.18
2022-12-27T04:48:28.250Z,2.08
2022-12-27T04:49:28.271Z,2.15
2022-12-27T04:50:28.209Z,2.19
2022-12-27T04:51:28.205Z,2.09
2022-12-27T04:52:28.220Z,2.22
2022-12-27T04:53:28.222Z,2.23
2022-12-27T04:54:28.172Z,2.26
2022-12-27T04:55:28.194Z,2.22
2022-12-27T04:56:28.130Z,2.26
2022-12-27T04:57:28.122Z,2.36
2022-12-27T04:58:28.146Z,2.32
2022-12-27T04:59:28.131Z,2.26
2022-12-27T05:00:28.106Z,2.33
2022-12-27T05:01:28.188Z,2.27
2022-12-27T05:02:28.187Z,2.23
2022-12-27T05:03:28.149Z,2.30
2022-12-27T05:04:28.079Z,2.32
2022-12-27T05:05:28.042Z,2.32
2022-12-27T05:06:28.019Z,2.32
2022-12-27T05:07:28.041Z,2.25
2022-12-27T05:08:28.009Z,2.27
2022-12-27T05:09:28.024Z,2.29
2022-12-27T05:10:27.991Z,2.18
2022-12-27T05:11:27.990Z,2.19
2022-12-27T05:12:27.969Z,2.22
2022-12-27T05:13:27.947Z,2.23
2022-12-27T05:14:27.955Z,2.19
2022-12-27T05:15:27.934Z,2.19
2022-12-27T05:16:27.948Z,2.12
2022-12-27T05:17:27.903Z,2.22
2022-12-27T05:18:27.906Z,2.09
2022-12-27T05:19:27.882Z,2.02
2022-12-27T05:20:27.875Z,2.11
2022-12-27T05:21:27.855Z,2.11
2022-12-27T05:22:27.838Z,2.08
2022-12-27T05:23:27.841Z,2.04
2022-12-27T05:24:27.849Z,1.90
2022-12-27T05:25:27.859Z,2.01
2022-12-27T05:26:27.792Z,1.83
2022-12-27T05:27:27.807Z,1.86
2022-12-27T05:28:27.804Z,1.92
2022-12-27T05:29:27.795Z,2.00
2022-12-27T05:30:27.756Z,1.93
2022-12-27T05:31:27.862Z,1.86
2022-12-27T05:32:27.766Z,1.90
2022-12-27T05:33:27.716Z,1.82
2022-12-27T05:34:27.704Z,1.88
2022-12-27T05:35:27.719Z,1.86
2022-12-27T05:36:27.691Z,2.00
2022-12-27T05:37:27.702Z,2.00
2022-12-27T05:38:27.678Z,1.89
2022-12-27T05:39:27.674Z,2.02
2022-12-27T05:40:27.627Z,2.09
2022-12-27T05:41:27.644Z,2.09
2022-12-27T05:42:27.631Z,2.07
2022-12-27T05:43:27.634Z,2.04
2022-12-27T05:44:27.607Z,2.04
2022-12-27T05:45:27.608Z,2.00
2022-12-27T05:46:27.634Z,2.15
2022-12-27T05:47:27.539Z,2.18
2022-12-27T05:48:27.569Z,2.18
2022-12-27T05:49:27.555Z,2.08
2022-12-27T05:50:27.639Z,2.26
2022-12-27T05:51:27.534Z,2.11
2022-12-27T05:52:27.497Z,2.22
2022-12-27T05:53:27.518Z,2.22
2022-12-27T05:54:27.508Z,2.30
2022-12-27T05:55:27.514Z,2.20
2022-12-27T05:56:27.487Z,2.32
2022-12-27T05:57:27.461Z,2.32
2022-12-27T05:58:27.462Z,2.38
2022-12-27T05:59:27.424Z,2.37
2022-12-27T06:00:27.473Z,2.29
2022-12-27T06:01:27.468Z,2.26
2022-12-27T06:02:27.537Z,2.23
2022-12-27T06:03:27.441Z,2.32
2022-12-27T06:04:27.375Z,2.38
2022-12-27T06:05:27.370Z,2.25
2022-12-27T06:06:27.377Z,2.38
2022-12-27T06:07:27.336Z,2.22
2022-12-27T06:08:27.331Z,2.32
2022-12-27T06:09:27.308Z,2.26
2022-12-27T06:10:27.324Z,2.38
2022-12-27T06:11:27.318Z,2.27
2022-12-27T06:12:27.320Z,2.25
2022-12-27T06:13:27.265Z,2.40
2022-12-27T06:14:27.260Z,2.30
2022-12-27T06:15:27.258Z,2.43
2022-12-27T06:16:27.327Z,2.43
2022-12-27T06:17:27.244Z,2.45
2022-12-27T06:18:27.247Z,2.45
2022-12-27T06:19:27.222Z,2.47
2022-12-27T06:20:27.205Z,2.51
2022-12-27T06:21:27.221Z,2.47
2022-12-27T06:22:27.193Z,2.55
2022-12-27T06:23:27.158Z,2.61
2022-12-27T06:24:27.193Z,2.50
2022-12-27T06:25:28.141Z,2.59
2022-12-27T06:26:27.151Z,2.58
2022-12-27T06:27:27.143Z,2.56
2022-12-27T06:28:27.121Z,2.61
2022-12-27T06:29:27.112Z,2.56
2022-12-27T06:30:29.328Z,2.61
2022-12-27T06:31:28.137Z,2.56
2022-12-27T06:32:27.110Z,2.62
2022-12-27T06:33:27.063Z,2.68
2022-12-27T06:34:28.060Z,2.77
2022-12-27T06:35:27.019Z,2.73
2022-12-27T06:36:27.017Z,2.76
2022-12-27T06:37:27.058Z,2.79
2022-12-27T06:38:27.020Z,2.83
2022-12-27T06:39:26.983Z,2.71
2022-12-27T06:40:26.988Z,2.81
2022-12-27T06:41:27.017Z,2.77
2022-12-27T06:42:26.970Z,2.83
2022-12-27T06:43:26.940Z,2.81
2022-12-27T06:44:26.931Z,2.73
2022-12-27T06:45:26.998Z,2.80
2022-12-27T06:46:27.077Z,2.81
2022-12-27T06:47:26.894Z,2.65
2022-12-27T06:48:26.898Z,2.71
2022-12-27T06:49:26.899Z,2.68
2022-12-27T06:50:26.885Z,2.84
2022-12-27T06:51:26.855Z,2.74
2022-12-27T06:52:26.847Z,2.86
2022-12-27T06:53:26.857Z,2.81
2022-12-27T06:54:26.820Z,2.89
2022-12-27T06:55:26.838Z,2.79
2022-12-27T06:56:26.805Z,2.89
2022-12-27T06:57:26.827Z,2.89
2022-12-27T06:58:26.793Z,2.99
2022-12-27T06:59:26.780Z,2.99
2022-12-27T07:00:26.816Z,2.99
2022-12-27T07:01:26.885Z,2.92
2022-12-27T07:02:26.880Z,2.94
2022-12-27T07:03:27.730Z,2.90
2022-12-27T07:04:26.725Z,2.97
2022-12-27T07:05:26.723Z,2.94
2022-12-27T07:06:26.678Z,3.01
2022-12-27T07:07:26.705Z,3.02
2022-12-27T07:08:26.706Z,2.94
2022-12-27T07:09:26.728Z,2.99
2022-12-27T07:10:26.639Z,2.89
2022-12-27T07:11:26.675Z,3.01
2022-12-27T07:12:29.558Z,2.92
2022-12-27T07:13:27.629Z,3.02
2022-12-27T07:14:26.610Z,3.07
2022-12-27T07:15:26.597Z,2.99
2022-12-27T07:16:26.638Z,3.05
2022-12-27T07:17:26.553Z,3.07
2022-12-27T07:18:26.567Z,3.12
2022-12-27T07:19:26.562Z,3.04
2022-12-27T07:20:26.539Z,3.04
2022-12-27T07:21:26.509Z,3.02
2022-12-27T07:22:26.568Z,3.05
2022-12-27T07:23:26.518Z,3.10
2022-12-27T07:24:26.506Z,3.04
2022-12-27T07:25:26.497Z,3.05
2022-12-27T07:26:26.507Z,3.04
2022-12-27T07:27:26.497Z,3.04
2022-12-27T07:28:26.454Z,3.02
2022-12-27T07:29:26.440Z,3.05
2022-12-27T07:30:26.436Z,3.04
2022-12-27T07:31:26.532Z,3.10
2022-12-27T07:32:26.418Z,3.07
2022-12-27T07:33:26.391Z,3.10
2022-12-27T07:34:26.394Z,3.08
2022-12-27T07:35:26.368Z,3.16
2022-12-27T07:36:26.354Z,3.02
2022-12-27T07:37:27.370Z,3.04
2022-12-27T07:38:26.360Z,3.15
2022-12-27T07:39:26.336Z,3.08
2022-12-27T07:40:26.414Z,3.10
2022-12-27T07:41:26.332Z,3.07
2022-12-27T07:42:26.356Z,3.07
2022-12-27T07:43:26.312Z,2.97
2022-12-27T07:44:26.299Z,2.95
2022-12-27T07:45:26.278Z,2.92
2022-12-27T07:46:26.274Z,2.87
2022-12-27T07:47:26.261Z,3.02
2022-12-27T07:48:26.227Z,2.98
2022-12-27T07:49:26.233Z,2.94
2022-12-27T07:50:26.221Z,3.04
2022-12-27T07:51:26.219Z,2.98
2022-12-27T07:52:26.207Z,3.05
2022-12-27T07:53:26.210Z,3.13
2022-12-27T07:54:26.182Z,3.15
2022-12-27T07:55:27.163Z,3.19
2022-12-27T07:56:27.071Z,3.25
2022-12-27T07:57:27.170Z,3.28
2022-12-27T07:58:26.185Z,3.28
2022-12-27T07:59:26.111Z,3.37
2022-12-27T08:00:26.136Z,3.42
2022-12-27T08:01:26.159Z,3.46
2022-12-27T08:02:26.233Z,3.49
2022-12-27T08:03:26.098Z,3.49
2022-12-27T08:04:26.068Z,3.54
2022-12-27T08:05:28.046Z,3.50
2022-12-27T08:06:27.060Z,3.41
2022-12-27T08:07:26.045Z,3.50
2022-12-27T08:08:26.002Z,3.64
2022-12-27T08:09:26.087Z,3.57
2022-12-27T08:10:26.043Z,3.71
2022-12-27T08:11:25.999Z,3.68
2022-12-27T08:12:25.968Z,3.72
2022-12-27T08:13:25.957Z,3.80
2022-12-27T08:14:25.948Z,4.10
2022-12-27T08:15:25.963Z,4.21
2022-12-27T08:16:26.110Z,4.47
2022-12-27T08:17:25.945Z,4.64
2022-12-27T08:18:25.925Z,4.74
2022-12-27T08:19:25.900Z,4.65
2022-12-27T08:20:25.880Z,4.57
2022-12-27T08:21:25.888Z,4.49
2022-12-27T08:22:25.860Z,4.31
2022-12-27T08:23:25.874Z,4.47
2022-12-27T08:24:25.934Z,4.50
2022-12-27T08:25:25.844Z,4.53
2022-12-27T08:26:25.848Z,4.75
2022-12-27T08:27:25.820Z,4.97
2022-12-27T08:28:25.796Z,5.14
2022-12-27T08:29:25.781Z,5.17
2022-12-27T08:30:25.806Z,5.15
2022-12-27T08:31:25.805Z,5.04
2022-12-27T08:32:25.783Z,5.11
2022-12-27T08:33:25.744Z,5.12
2022-12-27T08:34:25.737Z,5.09
2022-12-27T08:35:51.638Z,4.90
2022-12-27T08:36:54.304Z,5.15
2022-12-27T08:37:27.692Z,5.37
2022-12-27T08:38:25.691Z,5.38
2022-12-27T08:39:25.689Z,5.45
2022-12-27T08:40:25.649Z,5.63
2022-12-27T08:41:25.658Z,5.87
2022-12-27T08:42:25.667Z,6.05
2022-12-27T08:43:25.621Z,5.85
2022-12-27T08:44:25.629Z,5.85
2022-12-27T08:45:25.676Z,5.99
2022-12-27T08:46:25.653Z,5.96
2022-12-27T08:47:25.604Z,5.87
2022-12-27T08:48:25.624Z,5.87
2022-12-27T08:49:25.597Z,5.60
2022-12-27T08:50:25.640Z,5.38
2022-12-27T08:51:33.121Z,5.33
2022-12-27T08:52:27.572Z,5.14
2022-12-27T08:53:25.505Z,5.14
2022-12-27T08:54:25.558Z,5.32
2022-12-27T08:55:25.515Z,5.19
2022-12-27T08:56:25.517Z,5.49
2022-12-27T08:57:25.474Z,5.74
2022-12-27T08:58:25.526Z,5.60
2022-12-27T08:59:25.455Z,5.52
2022-12-27T09:00:25.491Z,5.59
2022-12-27T09:01:25.533Z,5.63
2022-12-27T09:02:25.529Z,5.85
2022-12-27T09:03:25.440Z,5.98
2022-12-27T09:04:25.409Z,5.80
2022-12-27T09:05:26.211Z,5.75
2022-12-27T09:06:25.363Z,5.60
2022-12-27T09:07:25.363Z,5.56
2022-12-27T09:08:25.400Z,5.60
2022-12-27T09:09:25.346Z,5.58
2022-12-27T09:10:25.383Z,5.51
2022-12-27T09:11:25.350Z,5.42
2022-12-27T09:12:25.319Z,5.32
2022-12-27T09:13:25.283Z,5.33
2022-12-27T09:14:25.295Z,5.23
2022-12-27T09:15:25.273Z,5.23
2022-12-27T09:16:25.272Z,5.22
2022-12-27T09:17:25.283Z,5.19
2022-12-27T09:18:25.265Z,5.24
2022-12-27T09:19:25.295Z,5.24
2022-12-27T09:20:26.238Z,5.06
2022-12-27T09:21:25.224Z,5.15
2022-12-27T09:22:25.276Z,5.19
2022-12-27T09:23:25.180Z,5.11
2022-12-27T09:24:25.190Z,5.11
2022-12-27T09:25:25.236Z,5.22
2022-12-27T09:26:25.159Z,5.27
2022-12-27T09:27:25.134Z,5.19
2022-12-27T09:28:25.154Z,5.19
2022-12-27T09:29:25.131Z,5.20
2022-12-27T09:30:25.104Z,5.17
2022-12-27T09:31:25.172Z,5.22
2022-12-27T09:32:25.091Z,5.32
2022-12-27T09:33:25.064Z,5.41
2022-12-27T09:34:25.059Z,5.38
2022-12-27T09:35:25.062Z,5.51
2022-12-27T09:36:25.146Z,5.77
2022-12-27T09:37:25.016Z,5.66
2022-12-27T09:38:25.002Z,5.69
2022-12-27T09:39:25.055Z,5.69
2022-12-27T09:40:25.120Z,5.73
2022-12-27T09:42:12.212Z,5.80
2022-12-27T09:42:48.537Z,5.83
2022-12-27T09:43:27.833Z,5.73
2022-12-27T09:44:25.967Z,5.87
2022-12-27T09:45:24.946Z,5.92
2022-12-27T09:46:24.981Z,5.78
2022-12-27T09:47:24.921Z,5.74
2022-12-27T09:48:30.897Z,5.83
2022-12-27T09:49:26.918Z,5.74
2022-12-27T09:50:24.884Z,5.75
2022-12-27T09:51:24.878Z,5.74
2022-12-27T09:52:24.871Z,5.84
2022-12-27T09:53:24.896Z,5.73
2022-12-27T09:54:24.836Z,5.77
2022-12-27T09:55:24.879Z,5.81
2022-12-27T09:56:25.082Z,5.84
2022-12-27T09:57:24.834Z,5.81
2022-12-27T09:58:24.809Z,5.84
2022-12-27T09:59:24.767Z,5.93
2022-12-27T10:00:34.525Z,5.93
2022-12-27T10:01:25.907Z,5.93
2022-12-27T10:02:24.828Z,5.93
2022-12-27T10:03:24.725Z,6.08
2022-12-27T10:04:34.674Z,6.46
2022-12-27T10:05:25.751Z,6.45
2022-12-27T10:06:24.708Z,7.14
2022-12-27T10:07:24.689Z,7.41
2022-12-27T10:08:24.658Z,7.58
2022-12-27T10:09:24.706Z,7.52
2022-12-27T10:10:24.634Z,7.91
2022-12-27T10:11:24.626Z,8.10
2022-12-27T10:12:29.746Z,8.04
2022-12-27T10:13:26.629Z,8.27
2022-12-27T10:14:24.575Z,8.40
2022-12-27T10:15:24.636Z,8.67
2022-12-27T10:16:24.610Z,8.50
2022-12-27T10:17:24.581Z,8.46
2022-12-27T10:18:24.534Z,8.17
2022-12-27T10:19:24.522Z,7.91
2022-12-27T10:20:24.503Z,7.69
2022-12-27T10:21:24.559Z,7.42
2022-12-27T10:22:24.494Z,7.30
2022-12-27T10:23:24.539Z,7.27
2022-12-27T10:24:24.460Z,7.26
2022-12-27T10:25:24.511Z,7.12
2022-12-27T10:26:24.475Z,7.19
2022-12-27T10:27:24.447Z,7.16
2022-12-27T10:28:24.438Z,7.21
2022-12-27T10:29:24.454Z,7.26
2022-12-27T10:30:24.394Z,7.16
2022-12-27T10:31:24.448Z,7.12
2022-12-27T10:32:24.386Z,7.36
2022-12-27T10:33:24.379Z,7.63
2022-12-27T10:34:24.555Z,8.10
2022-12-27T10:35:24.358Z,8.43
2022-12-27T10:36:24.326Z,8.70
2022-12-27T10:37:24.342Z,8.80
2022-12-27T10:38:24.319Z,8.89
2022-12-27T10:39:24.291Z,8.76
2022-12-27T10:40:24.312Z,8.73
2022-12-27T10:41:24.282Z,8.88
2022-12-27T10:42:24.280Z,9.06
2022-12-27T10:43:24.267Z,9.12
2022-12-27T10:44:56.788Z,9.44
2022-12-27T10:45:24.252Z,9.75
2022-12-27T10:46:28.965Z,9.89
2022-12-27T10:47:25.222Z,10.14
2022-12-27T10:48:24.192Z,10.20
2022-12-27T10:49:25.195Z,9.77
2022-12-27T10:50:24.208Z,9.17
2022-12-27T10:51:24.199Z,8.60
2022-12-27T10:52:24.215Z,8.31
2022-12-27T10:53:24.183Z,8.20
2022-12-27T10:54:24.699Z,8.06
2022-12-27T10:55:24.185Z,7.79
2022-12-27T10:56:24.120Z,7.67
2022-12-27T10:57:24.176Z,7.51
2022-12-27T10:58:24.111Z,7.33
2022-12-27T10:59:24.103Z,7.34
2022-12-27T11:00:24.241Z,7.58
2022-12-27T11:01:24.158Z,7.95
2022-12-27T11:02:24.218Z,8.02
2022-12-27T11:03:24.040Z,7.88
2022-12-27T11:04:25.027Z,7.67
2022-12-27T11:05:24.021Z,7.55
2022-12-27T11:06:24.032Z,7.21
2022-12-27T11:07:24.029Z,7.08
2022-12-27T11:08:24.105Z,6.97
2022-12-27T11:09:24.011Z,6.90
2022-12-27T11:10:23.973Z,6.91
2022-12-27T11:11:23.995Z,6.75
2022-12-27T11:12:23.934Z,6.63
2022-12-27T11:13:23.964Z,6.57
2022-12-27T11:14:24.005Z,6.63
2022-12-27T11:15:23.904Z,6.63
2022-12-27T11:16:23.911Z,6.61
2022-12-27T11:17:23.889Z,6.72
2022-12-27T11:18:23.876Z,6.61
2022-12-27T11:19:23.904Z,6.69
2022-12-27T11:20:23.857Z,6.57
2022-12-27T11:21:27.812Z,6.68
2022-12-27T11:22:23.825Z,6.64
2022-12-27T11:23:23.836Z,6.69
2022-12-27T11:24:23.819Z,6.63
2022-12-27T11:25:23.804Z,6.71
2022-12-27T11:26:23.777Z,6.64
2022-12-27T11:27:23.770Z,6.81
2022-12-27T11:28:23.847Z,6.75
2022-12-27T11:29:23.764Z,6.69
2022-12-27T11:30:23.808Z,6.72
2022-12-27T11:31:23.737Z,6.61
2022-12-27T11:32:23.711Z,6.73
2022-12-27T11:33:25.147Z,6.73
2022-12-27T11:34:24.698Z,6.72
2022-12-27T11:35:23.700Z,6.71
2022-12-27T11:36:23.687Z,6.55
2022-12-27T11:37:23.897Z,6.58
2022-12-27T11:38:23.650Z,6.54
2022-12-27T11:39:23.631Z,6.54
2022-12-27T11:40:23.631Z,6.46
2022-12-27T11:41:27.900Z,6.50
2022-12-27T11:42:24.610Z,6.53
2022-12-27T11:43:23.635Z,6.57
2022-12-27T11:44:23.576Z,6.61
2022-12-27T11:45:23.581Z,6.69
2022-12-27T11:46:23.590Z,7.05
2022-12-27T11:47:23.594Z,7.05
2022-12-27T11:48:23.523Z,6.96
2022-12-27T11:49:23.526Z,7.15
2022-12-27T11:50:23.518Z,7.23
2022-12-27T11:51:23.576Z,7.09
2022-12-27T11:52:23.504Z,7.08
2022-12-27T11:53:23.483Z,7.23
2022-12-27T11:54:23.482Z,7.50
2022-12-27T11:55:23.476Z,7.70
2022-12-27T11:56:23.504Z,7.86
2022-12-27T11:57:23.462Z,8.17
2022-12-27T11:58:23.428Z,8.06
2022-12-27T11:59:23.416Z,7.82
2022-12-27T12:00:23.422Z,7.69
2022-12-27T12:01:23.501Z,7.55
2022-12-27T12:02:23.447Z,7.33
2022-12-27T12:03:23.393Z,7.30
2022-12-27T12:04:23.357Z,7.34
2022-12-27T12:05:23.351Z,7.24
2022-12-27T12:06:23.358Z,7.23
2022-12-27T12:07:23.331Z,7.16
2022-12-27T12:08:23.309Z,7.08
2022-12-27T12:09:23.310Z,7.08
2022-12-27T12:10:23.295Z,6.94
2022-12-27T12:11:23.283Z,6.91
2022-12-27T12:12:23.300Z,6.90
2022-12-27T12:13:23.259Z,6.90
2022-12-27T12:14:23.251Z,6.91
2022-12-27T12:15:23.256Z,6.91
2022-12-27T12:16:23.318Z,6.94
2022-12-27T12:17:23.241Z,6.87
2022-12-27T12:18:24.168Z,6.75
2022-12-27T12:19:23.222Z,6.79
2022-12-27T12:20:23.184Z,6.82
2022-12-27T12:21:23.180Z,6.86
2022-12-27T12:22:23.206Z,6.82
2022-12-27T12:23:23.152Z,6.75
2022-12-27T12:24:23.161Z,6.71
2022-12-27T12:25:23.124Z,6.72
2022-12-27T12:26:23.117Z,6.69
2022-12-27T12:27:23.129Z,6.65
2022-12-27T12:28:55.757Z,6.61
2022-12-27T12:29:25.104Z,6.58
2022-12-27T12:30:27.235Z,6.60
2022-12-27T12:31:24.135Z,6.55
2022-12-27T12:32:24.111Z,6.55
2022-12-27T12:33:23.055Z,6.58
2022-12-27T12:34:23.033Z,6.55
2022-12-27T12:35:23.014Z,6.61
2022-12-27T12:36:23.010Z,6.65
2022-12-27T12:37:23.029Z,6.63
2022-12-27T12:38:22.987Z,6.61
2022-12-27T12:39:22.970Z,6.58
2022-12-27T12:40:22.998Z,6.65
2022-12-27T12:41:22.962Z,6.58
2022-12-27T12:42:23.042Z,6.69
2022-12-27T12:43:23.007Z,6.69
2022-12-27T12:44:23.002Z,6.75
2022-12-27T12:45:22.906Z,6.78
2022-12-27T12:46:22.953Z,6.78
2022-12-27T12:47:22.934Z,6.76
2022-12-27T12:48:22.882Z,6.81
2022-12-27T12:49:22.883Z,6.82
2022-12-27T12:50:22.853Z,6.87
2022-12-27T12:51:22.924Z,6.82
2022-12-27T12:52:22.846Z,6.89
2022-12-27T12:53:22.826Z,6.93
2022-12-27T12:54:22.813Z,6.78
2022-12-27T12:55:22.858Z,6.87
2022-12-27T12:56:22.777Z,6.82
2022-12-27T12:57:22.790Z,6.94
2022-12-27T12:58:22.786Z,6.83
2022-12-27T12:59:22.841Z,6.90
2022-12-27T13:00:22.727Z,6.93
2022-12-27T13:01:22.832Z,7.14
2022-12-27T13:02:22.934Z,7.12
2022-12-27T13:03:22.761Z,7.24
2022-12-27T13:04:22.708Z,7.16
2022-12-27T13:05:22.707Z,7.19
2022-12-27T13:06:22.670Z,7.52
2022-12-27T13:07:22.668Z,7.91
2022-12-27T13:08:22.675Z,7.81
2022-12-27T13:09:22.648Z,7.71
2022-12-27T13:10:22.640Z,7.66
2022-12-27T13:11:22.629Z,7.57
2022-12-27T13:12:22.604Z,7.52
2022-12-27T13:13:22.682Z,7.34
2022-12-27T13:14:22.591Z,7.39
2022-12-27T13:15:22.588Z,7.24
2022-12-27T13:16:22.618Z,7.21
2022-12-27T13:17:22.575Z,7.23
2022-12-27T13:18:28.373Z,7.41